地図

経路データ

SID SEASON NUMBER BASIN SUBBASIN NAME ISO_TIME NATURE LAT LON WMO_WIND WMO_PRES WMO_AGENCY TRACK_TYPE DIST2LAND LANDFALL IFLAG USA_AGENCY USA_ATCF_ID USA_LAT USA_LON USA_RECORD USA_STATUS USA_WIND USA_PRES USA_SSHS USA_R34_NE USA_R34_SE USA_R34_SW USA_R34_NW USA_R50_NE USA_R50_SE USA_R50_SW USA_R50_NW USA_R64_NE USA_R64_SE USA_R64_SW USA_R64_NW USA_POCI USA_ROCI USA_RMW USA_EYE TOKYO_LAT TOKYO_LON TOKYO_GRADE TOKYO_WIND TOKYO_PRES TOKYO_R50_DIR TOKYO_R50_LONG TOKYO_R50_SHORT TOKYO_R30_DIR TOKYO_R30_LONG TOKYO_R30_SHORT TOKYO_LAND CMA_LAT CMA_LON CMA_CAT CMA_WIND CMA_PRES HKO_LAT HKO_LON HKO_CAT HKO_WIND HKO_PRES NEWDELHI_LAT NEWDELHI_LON NEWDELHI_GRADE NEWDELHI_WIND NEWDELHI_PRES NEWDELHI_CI NEWDELHI_DP NEWDELHI_POCI REUNION_LAT REUNION_LON REUNION_TYPE REUNION_WIND REUNION_PRES REUNION_TNUM REUNION_CI REUNION_RMW REUNION_R34_NE REUNION_R34_SE REUNION_R34_SW REUNION_R34_NW REUNION_R50_NE REUNION_R50_SE REUNION_R50_SW REUNION_R50_NW REUNION_R64_NE REUNION_R64_SE REUNION_R64_SW REUNION_R64_NW BOM_LAT BOM_LON BOM_TYPE BOM_WIND BOM_PRES BOM_TNUM BOM_CI BOM_RMW BOM_R34_NE BOM_R34_SE BOM_R34_SW BOM_R34_NW BOM_R50_NE BOM_R50_SE BOM_R50_SW BOM_R50_NW BOM_R64_NE BOM_R64_SE BOM_R64_SW BOM_R64_NW BOM_ROCI BOM_POCI BOM_EYE BOM_POS_METHOD BOM_PRES_METHOD NADI_LAT NADI_LON NADI_CAT NADI_WIND NADI_PRES WELLINGTON_LAT WELLINGTON_LON WELLINGTON_WIND WELLINGTON_PRES DS824_LAT DS824_LON DS824_STAGE DS824_WIND DS824_PRES TD9636_LAT TD9636_LON TD9636_STAGE TD9636_WIND TD9636_PRES TD9635_LAT TD9635_LON TD9635_WIND TD9635_PRES TD9635_ROCI NEUMANN_LAT NEUMANN_LON NEUMANN_CLASS NEUMANN_WIND NEUMANN_PRES MLC_LAT MLC_LON MLC_CLASS MLC_WIND MLC_PRES USA_GUST BOM_GUST BOM_GUST_PER REUNION_GUST REUNION_GUST_PER USA_SEAHGT USA_SEARAD_NE USA_SEARAD_SE USA_SEARAD_SW USA_SEARAD_NW STORM_SPEED STORM_DIR
1927144N12129 1927 24 WP MM NOT_NAMED 1927-05-24 10:00:00 NR 12.2000 129.100 main 383 373 __________O___ -1 12.2000 129.100 7 3 282
1927144N12129 1927 24 WP MM NOT_NAMED 1927-05-24 12:00:00 NR 12.2222 128.996 main 373 357 __________P___ -1 12.2222 128.996 7 3 285
1927144N12129 1927 24 WP MM NOT_NAMED 1927-05-24 15:00:00 NR 12.2723 128.823 main 357 337 __________P___ -1 12.2723 128.823 7 4 291
1927144N12129 1927 24 WP MM NOT_NAMED 1927-05-24 18:00:00 NR 12.3651 128.606 main 337 306 __________P___ -1 12.3651 128.606 7 6 297
1927144N12129 1927 24 WP MM NOT_NAMED 1927-05-24 21:00:00 NR 12.5266 128.317 main 306 296 __________P___ -1 12.5266 128.317 7 7 301
1927144N12129 1927 24 WP MM NOT_NAMED 1927-05-24 22:00:00 NR 12.6000 128.200 main 296 269 __________O___ -1 12.6000 128.200 3 9 304
1927144N12129 1927 24 WP MM NOT_NAMED 1927-05-25 00:00:00 NR 12.7790 127.932 main 269 239 __________P___ -1 12.7790 127.932 3 11 305
1927144N12129 1927 24 WP MM NOT_NAMED 1927-05-25 03:00:00 NR 13.1106 127.461 main 239 210 __________P___ -1 13.1106 127.461 3 12 306
1927144N12129 1927 24 WP MM NOT_NAMED 1927-05-25 06:00:00 NR 13.4872 126.935 main 210 195 __________P___ -1 13.4872 126.935 3 13 306
1927144N12129 1927 24 WP MM NOT_NAMED 1927-05-25 09:00:00 NR 13.8744 126.384 main 203 194 __________P___ -1 13.8744 126.384 3 13 306
1927144N12129 1927 24 WP MM NOT_NAMED 1927-05-25 10:00:00 NR 14.0000 126.200 main 194 154 __________O___ -1 14.0000 126.200 4 13 304
1927144N12129 1927 24 WP MM NOT_NAMED 1927-05-25 12:00:00 NR 14.2329 125.840 main 154 124 __________P___ -1 14.2329 125.840 4 13 303
1927144N12129 1927 24 WP MM NOT_NAMED 1927-05-25 15:00:00 NR 14.5762 125.293 main 124 108 __________P___ -1 14.5762 125.293 4 12 303
1927144N12129 1927 24 WP MM NOT_NAMED 1927-05-25 18:00:00 NR 14.9039 124.758 main 114 109 __________P___ -1 14.9039 124.758 4 12 302
1927144N12129 1927 24 WP MM NOT_NAMED 1927-05-25 21:00:00 NR 15.2064 124.256 main 134 134 __________P___ -1 15.2064 124.256 4 11 302
1927144N12129 1927 24 WP MM NOT_NAMED 1927-05-25 22:00:00 NR 15.3000 124.100 main 145 145 __________O___ -1 15.3000 124.100 4 10 302
1927144N12129 1927 24 WP MM NOT_NAMED 1927-05-26 00:00:00 NR 15.4724 123.815 main 170 140 __________P___ -1 15.4724 123.815 4 9 302
1927144N12129 1927 24 WP MM NOT_NAMED 1927-05-26 03:00:00 NR 15.7061 123.426 main 140 101 __________P___ -1 15.7061 123.426 4 9 302
1927144N12129 1927 24 WP MM NOT_NAMED 1927-05-26 06:00:00 NR 15.9211 123.067 main 101 54 __________P___ -1 15.9211 123.067 4 8 302
1927144N12129 1927 24 WP MM NOT_NAMED 1927-05-26 09:00:00 NR 16.1297 122.717 main 54 42 __________P___ -1 16.1297 122.717 4 8 302
1927144N12129 1927 24 WP MM NOT_NAMED 1927-05-26 10:00:00 NR 16.2000 122.600 main 42 10 __________O___ -1 16.2000 122.600 4 8 301
1927144N12129 1927 24 WP MM NOT_NAMED 1927-05-26 12:00:00 NR 16.3394 122.350 main 10 0 __________P___ -1 16.3394 122.350 4 8 300
1927144N12129 1927 24 WP MM NOT_NAMED 1927-05-26 15:00:00 NR 16.5483 121.974 main 0 0 __________P___ -1 16.5483 121.974 4 8 301
1927144N12129 1927 24 WP MM NOT_NAMED 1927-05-26 18:00:00 NR 16.7682 121.599 main 0 0 __________P___ -1 16.7682 121.599 4 9 303
1927144N12129 1927 24 WP MM NOT_NAMED 1927-05-26 21:00:00 NR 17.0115 121.225 main 0 0 __________P___ -1 17.0115 121.225 4 9 305
1927144N12129 1927 24 WP MM NOT_NAMED 1927-05-26 22:00:00 NR 17.1000 121.100 main 0 0 __________O___ -1 17.1000 121.100 4 9 308
1927144N12129 1927 24 WP MM NOT_NAMED 1927-05-27 00:00:00 NR 17.2937 120.845 main 0 0 __________P___ -1 17.2937 120.845 4 10 310
1927144N12129 1927 24 WP MM NOT_NAMED 1927-05-27 03:00:00 NR 17.6097 120.462 main 0 0 __________P___ -1 17.6097 120.462 4 10 312
1927144N12129 1927 24 WP MM NOT_NAMED 1927-05-27 06:00:00 NR 17.9449 120.084 main 38 42 __________P___ -1 17.9449 120.084 4 10 314
1927144N12129 1927 24 WP MM NOT_NAMED 1927-05-27 09:00:00 NR 18.2867 119.718 main 87 87 __________P___ -1 18.2867 119.718 4 10 315
1927144N12129 1927 24 WP MM NOT_NAMED 1927-05-27 10:00:00 NR 18.4000 119.600 main 100 100 __________O___ -1 18.4000 119.600 4 10 315
1927144N12129 1927 24 WP MM NOT_NAMED 1927-05-27 12:00:00 NR 18.6430 119.341 main 138 141 __________P___ -1 18.6430 119.341 4 10 315
1927144N12129 1927 24 WP MM NOT_NAMED 1927-05-27 15:00:00 NR 19.0080 118.964 main 181 191 __________P___ -1 19.0080 118.964 4 10 316
1927144N12129 1927 24 WP MM NOT_NAMED 1927-05-27 18:00:00 NR 19.3459 118.628 main 233 238 __________P___ -1 19.3459 118.628 4 8 318
1927144N12129 1927 24 WP MM NOT_NAMED 1927-05-27 21:00:00 NR 19.6253 118.366 main 267 267 __________P___ -1 19.6253 118.366 4 7 319
1927144N12129 1927 24 WP MM NOT_NAMED 1927-05-27 22:00:00 NR 19.7000 118.300 main 282 282 __________O___ -1 19.7000 118.300 4 5 323
1927144N12129 1927 24 WP MM NOT_NAMED 1927-05-28 00:00:00 NR 19.8120 118.214 main 296 296 __________P___ -1 19.8120 118.214 4 3 329
1927144N12129 1927 24 WP MM NOT_NAMED 1927-05-28 03:00:00 NR 19.9175 118.162 main 302 302 __________P___ -1 19.9175 118.162 4 2 345
1927144N12129 1927 24 WP MM NOT_NAMED 1927-05-28 06:00:00 NR 19.9698 118.167 main 309 309 __________P___ -1 19.9698 118.167 4 1 30
1927144N12129 1927 24 WP MM NOT_NAMED 1927-05-28 09:00:00 NR 19.9939 118.193 main 309 309 __________P___ -1 19.9939 118.193 4 1 57
1927144N12129 1927 24 WP MM NOT_NAMED 1927-05-28 10:00:00 NR 20.0000 118.200 main 309 309 __________O___ -1 20.0000 118.200 4 1 330
1927144N12129 1927 24 WP MM NOT_NAMED 1927-05-28 12:00:00 NR 20.0281 118.183 main 309 309 __________P___ -1 20.0281 118.183 4 1 327
1927144N12129 1927 24 WP MM NOT_NAMED 1927-05-28 15:00:00 NR 20.0576 118.158 main 315 315 __________P___ -1 20.0576 118.158 4 1 316
1927144N12129 1927 24 WP MM NOT_NAMED 1927-05-28 18:00:00 NR 20.0775 118.133 main 324 324 __________P___ -1 20.0775 118.133 4 1 311
1927144N12129 1927 24 WP MM NOT_NAMED 1927-05-28 21:00:00 NR 20.0941 118.108 main 324 324 __________P___ -1 20.0941 118.108 4 1 305
1927144N12129 1927 24 WP MM NOT_NAMED 1927-05-28 22:00:00 NR 20.1000 118.100 main 324 324 __________O___ -1 20.1000 118.100 4 1 0
1927144N12129 1927 24 WP MM NOT_NAMED 1927-05-29 00:00:00 NR 20.1140 118.086 main 324 324 __________P___ -1 20.1140 118.086 4 1 309
1927144N12129 1927 24 WP MM NOT_NAMED 1927-05-29 03:00:00 NR 20.1350 118.065 main 324 324 __________P___ -1 20.1350 118.065 4 1 323
1927144N12129 1927 24 WP MM NOT_NAMED 1927-05-29 06:00:00 NR 20.1588 118.041 main 338 338 __________P___ -1 20.1588 118.041 4 1 312
1927144N12129 1927 24 WP MM NOT_NAMED 1927-05-29 09:00:00 NR 20.1883 118.012 main 338 338 __________P___ -1 20.1883 118.012 4 1 317
1927144N12129 1927 24 WP MM NOT_NAMED 1927-05-29 10:00:00 NR 20.2000 118.000 main 338 338 __________O___ -1 20.2000 118.000 4 1 311
1927144N12129 1927 24 WP MM NOT_NAMED 1927-05-29 12:00:00 NR 20.2250 117.970 main 338 324 __________P___ -1 20.2250 117.970 4 1 311
1927144N12129 1927 24 WP MM NOT_NAMED 1927-05-29 15:00:00 NR 20.2688 117.918 main 324 324 __________P___ -1 20.2688 117.918 4 1 314
1927144N12129 1927 24 WP MM NOT_NAMED 1927-05-29 18:00:00 NR 20.3200 117.864 main 324 310 __________P___ -1 20.3200 117.864 4 1 318
1927144N12129 1927 24 WP MM NOT_NAMED 1927-05-29 21:00:00 NR 20.3788 117.815 main 310 310 __________P___ -1 20.3788 117.815 4 2 326
1927144N12129 1927 24 WP MM NOT_NAMED 1927-05-29 22:00:00 NR 20.4000 117.800 main 310 310 __________O___ -1 20.4000 117.800 4 1 327
1927144N12129 1927 24 WP MM NOT_NAMED 1927-05-30 00:00:00 NR 20.4364 117.778 main 310 300 __________P___ -1 20.4364 117.778 4 1 338
1927144N12129 1927 24 WP MM NOT_NAMED 1927-05-30 03:00:00 NR 20.4972 117.750 main 300 285 __________P___ -1 20.4972 117.750 4 1 340
1927144N12129 1927 24 WP MM NOT_NAMED 1927-05-30 06:00:00 NR 20.5709 117.728 main 285 275 __________P___ -1 20.5709 117.728 4 2 345
1927144N12129 1927 24 WP MM NOT_NAMED 1927-05-30 09:00:00 NR 20.6637 117.707 main 275 275 __________P___ -1 20.6637 117.707 4 2 350
1927144N12129 1927 24 WP MM NOT_NAMED 1927-05-30 10:00:00 NR 20.7000 117.700 main 275 265 __________O___ -1 20.7000 117.700 4 2 0
1927144N12129 1927 24 WP MM NOT_NAMED 1927-05-30 12:00:00 NR 20.7855 117.686 main 265 255 __________P___ -1 20.7855 117.686 4 3 349
1927144N12129 1927 24 WP MM NOT_NAMED 1927-05-30 15:00:00 NR 20.9327 117.665 main 255 230 __________P___ -1 20.9327 117.665 4 3 352
1927144N12129 1927 24 WP MM NOT_NAMED 1927-05-30 18:00:00 NR 21.0916 117.641 main 230 221 __________P___ -1 21.0916 117.641 4 3 350
1927144N12129 1927 24 WP MM NOT_NAMED 1927-05-30 21:00:00 NR 21.2497 117.612 main 221 211 __________P___ -1 21.2497 117.612 4 3 348
1927144N12129 1927 24 WP MM NOT_NAMED 1927-05-30 22:00:00 NR 21.3000 117.600 main 211 202 __________O___ -1 21.3000 117.600 4 3 348
1927144N12129 1927 24 WP MM NOT_NAMED 1927-05-31 00:00:00 NR 21.3890 117.575 main 202 187 __________P___ -1 21.3890 117.575 4 3 342
1927144N12129 1927 24 WP MM NOT_NAMED 1927-05-31 03:00:00 NR 21.5163 117.531 main 187 178 __________P___ -1 21.5163 117.531 4 3 340
1927144N12129 1927 24 WP MM NOT_NAMED 1927-05-31 06:00:00 NR 21.6388 117.480 main 178 153 __________P___ -1 21.6388 117.480 4 3 336
1927144N12129 1927 24 WP MM NOT_NAMED 1927-05-31 09:00:00 NR 21.7596 117.421 main 153 153 __________P___ -1 21.7596 117.421 4 3 333
1927144N12129 1927 24 WP MM NOT_NAMED 1927-05-31 10:00:00 NR 21.8000 117.400 main 153 145 __________O___ -1 21.8000 117.400 4 3 333
1927144N12129 1927 24 WP MM NOT_NAMED 1927-05-31 12:00:00 NR 21.8816 117.355 main 145 129 __________P___ -1 21.8816 117.355 4 3 332
1927144N12129 1927 24 WP MM NOT_NAMED 1927-05-31 15:00:00 NR 22.0058 117.283 main 129 114 __________P___ -1 22.0058 117.283 4 3 331
1927144N12129 1927 24 WP MM NOT_NAMED 1927-05-31 18:00:00 NR 22.1314 117.206 main 114 91 __________P___ -1 22.1314 117.206 4 3 330
1927144N12129 1927 24 WP MM NOT_NAMED 1927-05-31 21:00:00 NR 22.2578 117.127 main 91 91 __________P___ -1 22.2578 117.127 4 3 330
1927144N12129 1927 24 WP MM NOT_NAMED 1927-05-31 22:00:00 NR 22.3000 117.100 main 91 __________O___ -1 22.3000 117.100 2 3 0

デジタル台風データ・検索

IBTrACS Databaseについて

本データベースは、米国NOAAが公開する1842年以降の世界の熱帯低気圧のベストトラックデータアーカイブInternational Best Track Archive for Climate Stewardship (IBTrACS)を、ウェブで閲覧しやすい形式に変換したものです。

最終更新日:2021-11-26